Terminal Aerodrome Forecast
Issued by NWS

Current Version | Previous Version | Text Only | Print | Product List | Glossary On
Versions: 1 2 3 4 5 6 7 8 9 10 11 12 13
620
FTUS45 KABQ 212324
TAFFMN
TAF
KFMN 212324Z 2200/2224 29015G25KT P6SM SKC
     FM220300 29011KT P6SM SKC
     FM221000 09006KT P6SM SKC
     FM221730 27009KT P6SM SKC
     FM222000 27014KT P6SM SKC=

USA.gov is the U.S. government's official web portal to all federal, state and local government web resources and services.